Time;durP1;ratioP1;P1;durP2;ratioP2;P2;SDS_P1;SDS_P2;PMS_P1;PMS_P2;Temp;Humidity;BMP_temperature;BMP_pressure;BME280_temperature;BME280_humidity;BME280_pressure;Samples;Min_cycle;Max_cycle;Signal;HPM_P1;HPM_P2
2023/06/21 00:02:17;;;;;;;5.68;4.05;;;23.30;74.70;;;22.81;61.65;100217.84;5028985;28;20046;-79
2023/06/21 00:04:44;;;;;;;5.75;3.50;;;23.30;74.70;;;22.78;61.63;100209.47;5029451;28;20042;-79
2023/06/21 00:07:13;;;;;;;6.50;3.63;;;23.20;74.50;;;22.75;61.24;100210.88;5013248;28;20050;-79
2023/06/21 00:09:40;;;;;;;7.32;3.60;;;23.20;74.40;;;22.72;61.25;100211.47;5029205;28;20041;-79
2023/06/21 00:12:09;;;;;;;5.25;3.58;;;23.20;74.30;;;22.71;61.29;100211.78;5029173;28;20502;-79
2023/06/21 00:14:36;;;;;;;6.65;3.95;;;23.20;74.40;;;22.67;61.38;100214.28;5023276;28;20498;-79
2023/06/21 00:17:03;;;;;;;4.50;3.25;;;23.20;74.50;;;22.66;61.24;100209.94;5025906;28;20414;-79
2023/06/21 00:19:30;;;;;;;7.75;3.78;;;23.10;74.50;;;22.64;61.40;100217.56;5026395;28;20140;-79
2023/06/21 00:21:58;;;;;;;6.03;3.97;;;23.10;74.70;;;22.60;61.31;100220.09;5016321;28;20116;-79
2023/06/21 00:24:26;;;;;;;5.72;3.83;;;23.10;74.60;;;22.58;61.42;100210.63;5026562;28;20050;-79
2023/06/21 00:26:53;;;;;;;6.85;3.90;;;23.10;74.70;;;22.56;61.42;100213.66;5014110;28;20042;-79
2023/06/21 00:29:21;;;;;;;5.38;3.90;;;23.10;74.70;;;22.54;61.57;100218.56;5008139;28;20052;-79
2023/06/21 00:31:48;;;;;;;5.63;3.72;;;23.00;74.60;;;22.52;61.49;100228.13;5015172;28;20045;-79
2023/06/21 00:34:15;;;;;;;6.75;3.67;;;23.00;74.70;;;22.50;61.35;100225.72;5027576;28;20565;-79
2023/06/21 00:36:43;;;;;;;6.80;3.75;;;23.00;74.70;;;22.48;61.46;100217.03;5025487;28;20037;-79
2023/06/21 00:39:10;;;;;;;5.65;3.67;;;23.00;74.50;;;22.47;61.42;100226.28;5020969;28;20136;-79
2023/06/21 00:41:40;;;;;;;5.82;3.97;;;23.00;74.70;;;22.45;61.55;100228.50;5027683;28;20065;-79
2023/06/21 00:44:08;;;;;;;6.60;3.97;;;23.00;74.80;;;22.43;61.50;100236.13;5014043;28;20050;-79
2023/06/21 00:46:35;;;;;;;5.60;3.80;;;22.90;74.80;;;22.41;61.53;100241.06;5008655;28;20057;-79
2023/06/21 00:49:02;;;;;;;5.15;3.53;;;22.90;74.80;;;22.38;61.66;100241.66;5017832;28;20087;-79
2023/06/21 00:51:32;;;;;;;5.97;4.05;;;22.90;75.00;;;22.36;61.80;100236.53;5014598;28;20068;-79
2023/06/21 00:54:00;;;;;;;5.80;3.70;;;22.90;75.00;;;22.34;61.57;100237.91;5018844;28;20149;-78
2023/06/21 00:56:27;;;;;;;5.95;3.88;;;22.80;74.90;;;22.32;61.84;100235.50;5007178;28;20665;-78
2023/06/21 00:58:57;;;;;;;7.43;4.35;;;22.80;75.10;;;22.32;61.64;100240.13;5018653;28;20141;-78
2023/06/21 01:01:26;;;;;;;6.25;4.00;;;22.80;75.10;;;22.28;61.79;100237.19;5024699;28;20141;-78
2023/06/21 01:03:53;;;;;;;7.07;3.78;;;22.80;75.20;;;22.25;61.93;100232.34;5022183;28;20053;-78
2023/06/21 01:06:29;;;;;;;6.10;3.63;;;22.70;75.20;;;22.23;61.76;100245.41;5013950;28;20046;-78
2023/06/21 01:09:10;;;;;;;5.90;4.15;;;22.70;75.20;;;22.20;61.64;100242.47;5021428;28;20061;-79
2023/06/21 01:11:51;;;;;;;5.90;3.55;;;22.70;75.20;;;22.18;61.68;100240.06;5028248;28;20422;-79
2023/06/21 01:14:32;;;;;;;6.10;4.00;;;22.70;75.20;;;22.15;61.84;100240.63;5009595;28;20046;-79
2023/06/21 01:17:02;;;;;;;8.25;4.05;;;22.70;75.10;;;22.13;61.74;100242.03;5007027;28;20156;-79
2023/06/21 01:19:43;;;;;;;7.57;4.57;;;22.60;75.20;;;22.09;61.60;100248.00;5025056;28;20429;-79
2023/06/21 01:22:24;;;;;;;6.60;4.10;;;22.60;75.30;;;22.06;61.71;100262.19;5027591;28;20131;-79
2023/06/21 01:25:02;;;;;;;6.43;4.30;;;22.60;75.40;;;22.02;62.08;100263.88;5026907;28;20053;-80
2023/06/21 01:27:42;;;;;;;6.35;3.97;;;22.50;75.80;;;21.98;62.48;100267.47;4990802;28;20054;-83
2023/06/21 01:30:12;;;;;;;7.20;5.05;;;22.50;75.80;;;21.96;62.30;100267.78;4988593;28;20046;-81
2023/06/21 01:32:40;;;;;;;6.43;4.18;;;22.40;76.20;;;21.96;62.25;100265.06;4982213;28;20070;-81
2023/06/21 01:35:10;;;;;;;6.63;4.43;;;22.50;76.00;;;21.96;62.43;100266.94;4984827;28;20043;-83
2023/06/21 01:37:42;;;;;;;6.70;4.50;;;22.40;76.00;;;21.93;62.26;100276.50;4972135;28;20046;-84
2023/06/21 01:40:11;;;;;;;7.22;4.28;;;22.40;76.10;;;21.93;62.33;100270.25;4984917;28;20511;-83
2023/06/21 01:42:39;;;;;;;9.38;4.65;;;22.40;76.10;;;21.93;62.42;100273.78;5010972;28;20101;-83
2023/06/21 01:45:08;;;;;;;8.48;4.90;;;22.40;76.30;;;21.90;62.78;100282.50;5010563;28;20480;-84
2023/06/21 01:47:39;;;;;;;7.55;4.78;;;22.40;76.60;;;21.88;62.55;100273.84;4987521;28;20042;-82
2023/06/21 01:50:08;;;;;;;;;;;22.40;76.50;;;21.86;63.13;100284.16;4987155;28;20125;-82
2023/06/21 01:52:37;;;;;;;7.45;4.57;;;22.40;76.80;;;21.85;63.15;100288.78;4973631;28;19926;-82
2023/06/21 01:55:07;;;;;;;8.55;4.75;;;22.30;76.70;;;21.85;63.09;100282.56;4988000;28;20065;-82
2023/06/21 01:57:36;;;;;;;8.95;5.43;;;22.30;76.60;;;21.85;62.77;100280.66;4977325;28;20046;-83
2023/06/21 02:00:13;;;;;;;7.47;4.90;;;22.30;76.60;;;21.84;63.12;100284.47;4985918;28;20523;-82
2023/06/21 02:02:50;;;;;;;8.05;5.30;;;22.30;76.90;;;21.84;63.23;100289.09;4993777;28;20046;-82
2023/06/21 02:05:18;;;;;;;8.27;5.45;;;22.30;77.00;;;21.80;62.99;100288.06;4987644;28;20050;-81
2023/06/21 02:07:47;;;;;;;8.00;5.50;;;22.30;77.00;;;21.77;63.19;100283.22;4994475;28;20049;-83
2023/06/21 02:10:18;;;;;;;7.47;5.00;;;22.20;76.90;;;21.74;63.14;100281.06;4988086;28;20046;-83
2023/06/21 02:12:50;;;;;;;7.88;4.93;;;22.20;77.00;;;21.74;63.22;100275.66;4987854;28;20089;-82
2023/06/21 02:15:19;;;;;;;7.30;4.88;;;22.20;77.20;;;21.72;63.46;100286.81;4984613;28;20053;-83
2023/06/21 02:17:49;;;;;;;6.47;4.85;;;22.20;77.10;;;21.70;63.29;100290.91;4985556;28;20051;-81
2023/06/21 02:20:17;;;;;;;7.05;5.10;;;22.20;77.20;;;21.71;63.15;100278.94;4989159;28;20125;-81
2023/06/21 02:22:45;;;;;;;8.25;4.88;;;22.20;77.10;;;21.69;63.27;100281.94;4979422;28;20073;-83
2023/06/21 02:25:14;;;;;;;8.30;5.25;;;22.20;77.10;;;21.68;63.50;100287.69;4989563;28;20046;-82
2023/06/21 02:27:42;;;;;;;7.57;5.20;;;22.20;77.20;;;21.67;63.15;100291.47;4992766;28;20376;-83
2023/06/21 02:30:10;;;;;;;7.65;4.80;;;22.10;77.00;;;21.66;63.21;100293.38;4992060;28;20435;-81
2023/06/21 02:32:38;;;;;;;8.02;5.03;;;22.20;77.00;;;21.66;63.19;100303.44;4988304;28;20520;-83
2023/06/21 02:35:09;;;;;;;10.65;5.00;;;22.10;77.10;;;21.65;63.08;100299.91;4999562;28;20418;-81
2023/06/21 02:37:38;;;;;;;8.40;5.43;;;22.20;77.00;;;21.65;63.30;100301.81;4987480;28;20670;-81
2023/06/21 02:40:10;;;;;;;8.25;5.18;;;22.10;77.00;;;21.64;63.13;100302.91;4990673;28;20046;-83
2023/06/21 02:42:37;;;;;;;7.35;5.00;;;22.10;77.00;;;21.63;63.24;100307.53;4981263;28;20046;-83
2023/06/21 02:45:07;;;;;;;9.20;5.20;;;22.10;76.90;;;21.63;63.23;100310.25;4975541;28;20435;-82
2023/06/21 02:47:34;;;;;;;9.00;5.30;;;22.10;77.00;;;21.62;63.01;100324.09;4984072;28;20117;-83
2023/06/21 02:50:02;;;;;;;8.00;4.75;;;22.10;77.00;;;21.60;63.03;100324.38;4990557;28;20054;-81
2023/06/21 02:52:31;;;;;;;10.00;5.60;;;22.10;77.00;;;21.60;62.94;100330.63;4999891;28;20084;-81
2023/06/21 02:54:58;;;;;;;7.82;4.70;;;22.10;77.00;;;21.57;63.16;100327.69;4996085;28;20042;-83
2023/06/21 02:57:26;;;;;;;7.90;5.10;;;22.10;77.20;;;21.57;63.33;100335.84;4991388;28;20491;-81
2023/06/21 02:59:53;;;;;;;9.45;5.30;;;22.10;77.20;;;21.55;63.32;100335.31;4996683;28;20070;-81
2023/06/21 03:02:21;;;;;;;10.73;5.57;;;22.00;77.00;;;21.55;63.23;100346.16;4984677;28;20078;-83
2023/06/21 03:04:49;;;;;;;9.07;5.20;;;22.00;77.20;;;21.53;63.06;100342.94;5005073;28;20523;-84
2023/06/21 03:07:17;;;;;;;10.95;5.68;;;22.00;77.20;;;21.51;63.80;100348.63;4988795;28;20042;-81
2023/06/21 03:09:45;;;;;;;9.07;5.32;;;22.00;77.70;;;21.47;63.71;100349.50;4986374;28;20038;-81
2023/06/21 03:12:13;;;;;;;10.50;5.00;;;22.00;77.60;;;21.46;63.70;100354.09;4986196;28;20046;-82
2023/06/21 03:14:41;;;;;;;9.63;5.75;;;22.00;77.60;;;21.47;63.62;100350.31;4989943;28;20050;-82
2023/06/21 03:17:10;;;;;;;11.05;5.50;;;22.00;77.80;;;21.45;63.72;100349.78;5006406;28;20046;-82
2023/06/21 03:19:37;;;;;;;8.13;5.57;;;22.00;77.60;;;21.46;63.43;100347.88;4996129;28;20039;-82
2023/06/21 03:22:06;;;;;;;7.18;4.97;;;22.00;77.50;;;21.45;63.62;100344.34;4979401;28;20054;-81
2023/06/21 03:24:34;;;;;;;10.38;5.50;;;22.00;77.50;;;21.45;63.59;100355.22;4984427;28;20716;-82
2023/06/21 03:27:06;;;;;;;9.77;5.68;;;22.00;77.60;;;21.45;63.41;100349.78;4988314;28;20089;-80
2023/06/21 03:29:35;;;;;;;;;;;22.00;77.40;;;21.45;63.71;100357.94;4999149;28;20046;-81
2023/06/21 03:32:02;;;;;;;7.47;5.45;;;22.00;77.40;;;21.45;63.64;100354.41;5003767;28;19925;-86
2023/06/21 03:34:30;;;;;;;10.18;5.53;;;21.90;77.40;;;21.44;63.34;100364.47;4990422;28;20551;-79
2023/06/21 03:36:57;;;;;;;7.90;5.22;;;21.90;77.40;;;21.44;63.64;100367.16;4989739;28;20038;-82
2023/06/21 03:39:26;;;;;;;11.10;5.35;;;21.90;77.50;;;21.44;63.64;100363.66;4988423;28;20129;-79
2023/06/21 03:41:54;;;;;;;8.65;5.80;;;21.90;77.50;;;21.43;63.56;100360.13;4994066;28;20053;-81
2023/06/21 03:44:22;;;;;;;7.93;5.30;;;21.90;77.60;;;21.43;63.44;100370.19;5007296;28;20056;-81
2023/06/21 03:46:50;;;;;;;7.40;5.10;;;21.90;77.60;;;21.43;63.47;100372.88;5005206;28;20077;-82
2023/06/21 03:49:22;;;;;;;8.48;5.03;;;21.90;77.60;;;21.43;63.53;100372.88;4989642;28;20077;-80
2023/06/21 03:51:50;;;;;;;8.55;5.70;;;21.90;77.60;;;21.43;64.03;100372.88;4994024;28;20050;-81
2023/06/21 03:54:17;;;;;;;8.13;5.03;;;21.90;77.70;;;21.43;63.96;100381.84;4991865;28;20523;-82
2023/06/21 03:56:45;;;;;;;8.15;5.60;;;21.90;77.80;;;21.44;63.97;100383.44;5008163;28;20045;-82
2023/06/21 03:59:12;;;;;;;8.55;5.47;;;22.00;77.80;;;21.45;63.92;100395.91;5007212;28;20056;-80
2023/06/21 04:01:41;;;;;;;9.45;5.60;;;22.00;78.00;;;21.45;63.92;100398.63;5014301;28;20054;-91
2023/06/21 04:04:10;;;;;;;8.27;5.30;;;21.90;78.20;;;21.44;64.34;100388.88;4984021;28;20418;-86
2023/06/21 04:06:38;;;;;;;9.20;5.90;;;21.90;78.30;;;21.44;64.29;100393.50;5004627;28;20046;-87
2023/06/21 04:09:06;;;;;;;9.05;5.75;;;22.00;78.20;;;21.44;64.21;100382.63;5005579;28;20051;-87
2023/06/21 04:11:33;;;;;;;10.23;5.97;;;22.00;78.20;;;21.45;64.52;100393.19;4984422;28;20050;-87
2023/06/21 04:14:00;;;;;;;8.57;5.68;;;22.00;78.20;;;21.46;64.59;100386.66;4984456;28;20038;-85
2023/06/21 04:16:27;;;;;;;11.43;5.90;;;22.00;78.60;;;21.47;64.60;100388.31;4990235;28;20042;-85
2023/06/21 04:18:56;;;;;;;9.70;5.78;;;22.00;78.50;;;21.47;64.81;100391.03;4997353;28;20050;-87
2023/06/21 04:21:25;;;;;;;8.77;5.95;;;22.00;78.80;;;21.47;65.06;100385.59;4988028;28;20056;-82
2023/06/21 04:23:52;;;;;;;11.60;5.60;;;22.00;79.10;;;21.48;65.36;100384.50;4982290;28;20041;-83
2023/06/21 04:26:21;;;;;;;8.57;6.00;;;22.00;79.40;;;21.53;65.57;100387.16;4988511;28;20065;-83
2023/06/21 04:28:50;;;;;;;7.95;5.47;;;22.10;79.60;;;21.57;65.66;100390.94;4985427;28;20054;-84
2023/06/21 04:31:17;;;;;;;8.15;5.28;;;22.10;79.80;;;21.63;65.45;100391.69;5016476;28;20073;-83
2023/06/21 04:33:45;;;;;;;10.68;6.03;;;22.20;79.40;;;21.68;65.75;100401.69;4988861;28;20092;-82
2023/06/21 04:36:17;;;;;;;9.30;6.15;;;22.30;79.90;;;21.75;65.53;100399.44;5005192;28;20145;-84
2023/06/21 04:38:49;;;;;;;11.52;6.10;;;22.30;79.70;;;21.80;65.24;100404.81;4974157;28;20149;-93
2023/06/21 04:41:17;;;;;;;8.88;5.85;;;22.40;79.40;;;21.82;65.20;100413.50;4989784;28;20445;-86
2023/06/21 04:43:44;;;;;;;8.95;5.80;;;22.40;79.20;;;21.89;65.28;100407.72;4998767;28;20045;-87
2023/06/21 04:46:12;;;;;;;11.07;6.07;;;22.50;79.30;;;21.99;65.32;100416.53;5001424;28;20427;-88
2023/06/21 04:48:39;;;;;;;8.43;5.68;;;22.60;79.40;;;22.08;65.32;100419.44;4986366;28;20042;-87
2023/06/21 04:51:06;;;;;;;9.80;6.10;;;22.70;79.50;;;22.15;65.19;100421.84;4974290;28;20043;-87
2023/06/21 04:53:35;;;;;;;8.10;5.72;;;22.70;79.40;;;22.23;64.96;100416.56;4986317;28;20052;-86
2023/06/21 04:56:02;;;;;;;10.20;6.07;;;22.80;79.40;;;22.32;64.93;100419.47;4986909;28;20116;-88
2023/06/21 04:58:35;;;;;;;9.68;5.78;;;22.90;79.00;;;22.36;64.84;100417.78;4987569;28;20046;-88
2023/06/21 05:01:03;;;;;;;9.20;6.03;;;22.90;79.00;;;22.45;65.05;100416.03;4989604;28;20073;-90
2023/06/21 05:03:32;;;;;;;13.45;6.13;;;23.00;79.00;;;22.53;65.11;100409.13;4987604;28;20113;-90
2023/06/21 05:05:59;;;;;;;11.93;6.30;;;23.10;79.30;;;22.63;65.14;100426.13;4979240;28;20061;-90
2023/06/21 05:08:27;;;;;;;8.50;5.70;;;23.20;79.20;;;22.74;64.63;100428.69;4976055;28;20049;-89
2023/06/21 05:10:55;;;;;;;10.63;5.82;;;23.20;78.80;;;22.81;64.23;100421.00;4970795;28;20035;-90
2023/06/21 05:13:23;;;;;;;9.57;6.18;;;23.30;78.40;;;22.89;64.33;100423.09;4971514;28;20046;-91
2023/06/21 05:15:50;;;;;;;12.98;6.43;;;23.40;78.40;;;22.99;64.09;100425.66;4979022;28;20604;-93
2023/06/21 05:18:17;;;;;;;9.73;5.45;;;23.50;78.30;;;23.10;63.80;100423.59;4984595;28;20042;-91
2023/06/21 05:20:45;;;;;;;9.18;6.28;;;23.60;78.10;;;23.18;63.30;100431.09;4998423;28;20053;-94
2023/06/21 05:23:12;;;;;;;10.32;5.95;;;23.70;77.60;;;23.28;62.86;100424.66;4985965;28;20045;-92
2023/06/21 05:25:39;;;;;;;9.55;6.15;;;23.80;77.10;;;23.33;63.06;100427.31;4990330;28;20133;-91
2023/06/21 05:28:08;;;;;;;9.45;6.05;;;23.80;77.30;;;23.39;63.07;100437.00;4985229;28;20046;-90
2023/06/21 05:30:35;;;;;;;9.27;6.30;;;23.90;77.20;;;23.45;62.70;100435.81;4979598;28;20125;-87
2023/06/21 05:33:02;;;;;;;9.65;6.03;;;23.90;76.50;;;23.49;62.68;100438.75;4983172;28;20121;-87
2023/06/21 05:35:30;;;;;;;11.85;6.03;;;24.00;76.60;;;23.54;62.49;100438.66;4987875;28;20065;-89
2023/06/21 05:37:57;;;;;;;11.57;6.95;;;24.10;76.40;;;23.61;62.85;100436.34;5007622;28;20138;-87
2023/06/21 05:40:24;;;;;;;9.60;6.68;;;24.10;76.80;;;23.67;62.42;100437.09;4989517;28;20042;-89
2023/06/21 05:42:51;;;;;;;9.45;6.80;;;24.20;76.20;;;23.74;62.23;100437.53;5003267;28;20476;-89
2023/06/21 05:45:20;;;;;;;10.73;6.65;;;24.20;75.90;;;23.80;62.07;100448.00;4989600;28;20070;-88
2023/06/21 05:47:47;;;;;;;13.77;6.20;;;24.40;76.10;;;23.86;62.18;100456.91;4987054;28;20414;-89
2023/06/21 05:50:15;;;;;;;9.95;6.65;;;24.40;75.80;;;23.95;61.82;100459.75;4980303;28;20522;-88
2023/06/21 05:52:42;;;;;;;10.40;6.13;;;24.50;75.70;;;24.01;61.92;100455.81;4995523;28;20089;-89
2023/06/21 05:55:10;;;;;;;9.20;6.35;;;24.60;75.50;;;24.06;61.57;100455.72;4988283;28;20042;-91
2023/06/21 05:57:37;;;;;;;9.80;6.78;;;24.60;75.10;;;24.08;61.60;100467.94;4985827;28;20060;-89
2023/06/21 06:00:09;;;;;;;13.63;6.85;;;24.70;75.30;;;24.16;61.91;100471.88;5007183;28;20069;-90
2023/06/21 06:02:42;;;;;;;11.27;6.43;;;24.70;75.40;;;24.20;61.65;100458.44;5011646;28;20046;-88
2023/06/21 06:05:10;;;;;;;13.00;7.07;;;24.80;75.30;;;24.24;61.39;100456.72;5012680;28;20570;-88
2023/06/21 06:07:38;;;;;;;11.18;6.43;;;24.80;74.90;;;24.24;61.20;100473.09;5018719;28;20050;-91
2023/06/21 06:10:06;;;;;;;10.13;6.68;;;24.80;74.50;;;24.28;61.35;100466.72;4992637;28;20771;-88
2023/06/21 06:12:33;;;;;;;11.00;7.05;;;24.80;75.00;;;24.36;60.96;100467.97;4989878;28;20085;-88
2023/06/21 06:15:01;;;;;;;9.27;6.72;;;24.90;74.50;;;24.44;60.99;100488.25;4994475;28;20047;-88
2023/06/21 06:17:28;;;;;;;13.50;7.18;;;25.00;74.40;;;24.51;60.90;100488.69;5021165;28;20044;-89
2023/06/21 06:19:58;;;;;;;12.13;7.07;;;25.00;74.30;;;24.58;61.04;100486.34;4992568;28;20046;-91
2023/06/21 06:22:25;;;;;;;10.57;6.57;;;25.10;74.50;;;24.62;60.87;100488.16;4991567;28;20046;-91
2023/06/21 06:24:53;;;;;;;12.55;7.50;;;25.20;74.10;;;24.69;60.38;100495.09;5007607;28;20504;-88
2023/06/21 06:27:20;;;;;;;13.15;7.72;;;25.30;73.80;;;24.73;60.45;100491.47;4990687;28;20097;-87
2023/06/21 06:29:47;;;;;;;13.55;7.13;;;25.30;73.80;;;24.76;60.35;100498.25;4986183;28;20076;-89
2023/06/21 06:32:14;;;;;;;12.98;7.40;;;25.30;73.30;;;24.82;60.77;100495.09;5009462;28;20048;-90
2023/06/21 06:34:41;;;;;;;12.32;7.60;;;25.40;73.90;;;24.93;60.10;100509.31;5011316;28;20132;-89
2023/06/21 06:37:11;;;;;;;12.25;7.82;;;25.50;73.30;;;24.99;60.03;100499.13;4993928;28;20491;-89
2023/06/21 06:39:39;;;;;;;11.93;7.72;;;25.50;72.70;;;24.99;59.76;100497.19;4992573;28;20069;-89
2023/06/21 06:42:07;;;;;;;10.80;7.65;;;25.60;72.50;;;25.05;59.61;100509.59;4991214;28;20515;-89
2023/06/21 06:44:34;;;;;;;13.48;8.02;;;25.70;72.30;;;25.10;58.84;100506.00;4989082;28;20042;-88
2023/06/21 06:47:01;;;;;;;11.68;7.50;;;25.70;71.90;;;25.12;59.19;100517.41;4984846;28;20133;-89
2023/06/21 06:49:28;;;;;;;12.60;7.72;;;25.80;71.70;;;25.17;59.46;100518.09;4989036;28;20058;-91
2023/06/21 06:51:56;;;;;;;11.85;7.75;;;25.80;71.60;;;25.23;59.46;100526.16;4988765;28;20042;-91
2023/06/21 06:54:25;;;;;;;13.75;8.73;;;25.90;71.90;;;25.26;58.52;100531.00;5000829;28;20047;-92
2023/06/21 06:56:53;;;;;;;13.38;7.80;;;25.90;70.70;;;25.27;58.73;100532.63;4978982;28;20611;-89
2023/06/21 06:59:20;;;;;;;13.43;8.25;;;25.90;71.10;;;25.34;58.78;100525.63;4985862;28;20137;-88
2023/06/21 07:01:47;;;;;;;14.85;8.32;;;26.00;71.60;;;25.39;57.95;100525.50;4979614;28;20043;-88
2023/06/21 07:04:14;;;;;;;12.48;8.40;;;26.00;70.90;;;25.41;58.50;100528.72;4998537;28;20101;-89
2023/06/21 07:06:42;;;;;;;12.02;7.97;;;26.00;71.20;;;25.48;59.27;100525.59;4987507;28;20039;-91
2023/06/21 07:09:12;;;;;;;12.68;7.65;;;26.10;72.00;;;25.51;58.45;100524.94;4976629;28;20057;-88
2023/06/21 07:11:41;;;;;;;12.15;7.65;;;26.10;71.20;;;25.53;57.81;100530.94;4990490;28;20108;-89
2023/06/21 07:14:08;;;;;;;10.50;7.70;;;26.10;70.50;;;25.57;57.34;100533.81;4984587;28;20042;-91
2023/06/21 07:16:36;;;;;;;11.68;7.15;;;26.20;70.00;;;25.53;58.00;100536.38;4978876;28;20046;-89
2023/06/21 07:19:03;;;;;;;13.32;8.02;;;26.10;70.30;;;25.48;57.40;100533.78;4987645;28;20081;-88
2023/06/21 07:21:31;;;;;;;11.45;8.45;;;26.10;69.90;;;25.45;58.09;100539.84;4980054;28;20113;-89
2023/06/21 07:23:58;;;;;;;12.63;8.60;;;26.10;70.20;;;25.40;57.50;100538.03;4987678;28;20074;-89
2023/06/21 07:26:25;;;;;;;12.45;8.35;;;26.00;70.10;;;25.45;58.37;100537.13;5013371;22;20057;-82
2023/06/21 07:28:54;;;;;;;19.33;8.95;;;26.10;71.10;;;25.46;58.32;100532.47;5018648;28;20124;-82
2023/06/21 07:31:21;;;;;;;12.05;7.63;;;26.10;70.70;;;25.55;58.77;100536.06;5012257;28;20096;-82
2023/06/21 07:33:50;;;;;;;14.85;8.18;;;26.10;71.30;;;25.65;59.15;100533.91;5010155;28;20128;-82
2023/06/21 07:36:17;;;;;;;10.85;7.60;;;26.20;71.90;;;25.67;58.65;100539.88;5002285;28;20049;-82
2023/06/21 07:38:46;;;;;;;13.77;7.85;;;26.30;70.80;;;25.63;57.56;100543.53;4994470;28;20121;-82
2023/06/21 07:41:14;;;;;;;10.38;8.20;;;26.20;69.70;;;25.57;56.81;100548.31;4991183;28;20038;-82
2023/06/21 07:43:41;;;;;;;10.65;8.27;;;26.20;69.10;;;25.45;56.27;100544.50;4987517;28;20049;-83
2023/06/21 07:46:10;;;;;;;10.82;8.38;;;26.10;68.50;;;25.29;56.20;100553.06;4994078;28;20069;-82
2023/06/21 07:48:39;;;;;;;15.88;8.65;;;26.00;68.70;;;25.22;56.80;100557.31;4991252;28;20066;-82
2023/06/21 07:51:06;;;;;;;12.68;8.48;;;25.90;68.50;;;25.10;57.86;100555.13;4988642;28;20136;-82
2023/06/21 07:53:34;;;;;;;17.33;9.43;;;25.90;69.50;;;25.00;57.53;100560.78;4982211;28;20558;-82
2023/06/21 07:56:01;;;;;;;14.80;9.02;;;25.70;69.60;;;24.91;57.84;100579.78;4991059;28;20629;-82
2023/06/21 07:58:29;;;;;;;15.43;9.18;;;25.60;70.00;;;24.85;58.31;100567.34;4971854;28;20697;-82
2023/06/21 08:00:56;;;;;;;12.93;8.35;;;25.60;70.40;;;24.85;58.54;100564.63;4975257;28;20042;-81
2023/06/21 08:03:25;;;;;;;11.52;7.78;;;25.50;70.90;;;24.93;58.68;100566.63;4989766;28;20460;-83
2023/06/21 08:05:52;;;;;;;10.65;7.63;;;25.60;70.90;;;25.03;59.95;100565.59;4989974;28;20048;-82
2023/06/21 08:08:20;;;;;;;13.10;8.60;;;25.70;72.20;;;25.14;59.38;100564.31;4989543;28;20104;-82
2023/06/21 08:10:47;;;;;;;12.30;7.82;;;25.80;71.30;;;25.19;58.20;100566.13;4990285;28;20046;-83
2023/06/21 08:13:17;;;;;;;12.63;8.38;;;25.80;70.70;;;25.23;58.92;100569.84;4990212;28;20104;-83
2023/06/21 08:15:44;;;;;;;10.85;6.95;;;25.90;71.10;;;25.30;58.10;100562.06;4990782;28;20063;-83
2023/06/21 08:18:11;;;;;;;10.30;7.90;;;25.90;70.50;;;25.32;58.26;100563.34;4987134;28;20487;-84
2023/06/21 08:20:40;;;;;;;10.70;7.05;;;25.90;70.30;;;25.43;59.30;100561.22;4990208;28;20070;-80
2023/06/21 08:23:08;;;;;;;11.02;7.03;;;26.00;72.10;;;25.48;58.50;100565.75;4989609;28;20043;-80
2023/06/21 08:25:35;;;;;;;12.63;7.50;;;26.10;71.20;;;25.44;57.07;100557.34;4989286;28;20176;-80
2023/06/21 08:28:03;;;;;;;10.00;6.95;;;26.10;69.50;;;25.47;57.21;100566.84;4989851;28;20049;-80
2023/06/21 08:30:31;;;;;;;10.25;6.63;;;26.10;69.60;;;25.48;57.25;100563.81;4978513;28;20049;-80
2023/06/21 08:32:58;;;;;;;14.40;7.40;;;26.10;69.70;;;25.57;59.15;100551.03;4970263;28;20046;-80
2023/06/21 08:35:25;;;;;;;11.90;7.93;;;26.20;71.30;;;25.67;58.02;100561.72;4984102;28;20069;-84
2023/06/21 08:37:58;;;;;;;12.10;8.43;;;26.30;70.40;;;25.73;57.85;100567.06;4988718;28;20105;-83
2023/06/21 08:40:27;;;;;;;12.77;8.10;;;26.40;70.30;;;25.75;57.97;100573.84;4979709;28;20612;-83
2023/06/21 08:42:54;;;;;;;12.73;8.27;;;26.40;70.40;;;25.85;57.68;100578.25;4970740;28;20134;-83
2023/06/21 08:45:22;;;;;;;14.98;7.95;;;26.50;69.50;;;25.92;57.13;100567.72;4973963;28;20133;-83
2023/06/21 08:47:51;;;;;;;17.17;8.50;;;26.60;69.10;;;26.04;57.53;100567.94;4979795;28;20046;-83
2023/06/21 08:50:19;;;;;;;13.38;8.73;;;26.60;69.30;;;26.13;57.15;100568.78;4989000;28;20146;-83
2023/06/21 08:52:49;;;;;;;10.75;7.53;;;26.80;68.90;;;26.27;58.48;100570.66;4979280;28;20050;-84
2023/06/21 08:55:23;;;;;;;13.82;7.32;;;26.90;70.30;;;26.31;55.92;100575.19;4984215;28;20222;-83
2023/06/21 08:57:54;;;;;;;10.73;7.32;;;27.00;68.30;;;26.31;55.28;100582.56;4988035;28;20133;-84
2023/06/21 09:00:27;;;;;;;12.77;6.50;;;27.00;67.30;;;26.39;56.81;100574.41;4979455;28;20081;-83
2023/06/21 09:03:10;;;;;;;10.45;6.90;;;27.00;69.20;;;26.43;55.58;100571.88;4987453;28;20487;-83
2023/06/21 09:05:48;;;;;;;14.43;7.18;;;27.10;67.30;;;26.41;54.53;100579.56;4982773;28;20082;-83
2023/06/21 09:08:17;;;;;;;8.88;6.20;;;27.10;66.20;;;26.42;55.70;100575.69;4990435;28;20402;-83
2023/06/21 09:10:50;;;;;;;8.95;6.13;;;27.10;67.20;;;26.43;54.97;100571.88;4983781;28;20458;-84
2023/06/21 09:13:19;;;;;;;10.45;6.53;;;27.10;66.90;;;26.40;53.30;100577.94;4987939;28;20053;-83
2023/06/21 09:15:48;;;;;;;8.65;6.30;;;27.10;65.00;;;26.32;54.25;100579.53;4988018;28;20130;-83
2023/06/21 09:18:16;;;;;;;9.88;6.35;;;27.00;65.60;;;26.28;52.97;100572.25;4986952;28;20042;-83
2023/06/21 09:20:48;;;;;;;10.98;6.38;;;27.00;64.50;;;26.22;54.38;100577.06;4988482;28;20066;-84
2023/06/21 09:23:15;;;;;;;9.93;6.35;;;26.90;65.20;;;26.16;53.47;100576.38;4964199;28;20134;-83
2023/06/21 09:25:44;;;;;;;8.32;6.13;;;26.90;64.60;;;26.10;54.33;100588.56;4991615;28;20121;-83
2023/06/21 09:28:13;;;;;;;8.38;6.05;;;26.80;65.50;;;26.06;54.11;100584.84;4986362;28;20046;-83
2023/06/21 09:30:41;;;;;;;9.27;6.43;;;26.80;64.90;;;26.02;54.22;100588.53;4987745;28;20045;-84
2023/06/21 09:33:09;;;;;;;10.07;6.05;;;26.70;65.40;;;26.00;55.53;100577.06;4989264;28;20079;-83
2023/06/21 09:35:38;;;;;;;9.32;6.70;;;26.70;66.80;;;26.09;57.20;100586.94;4989713;28;20522;-83
2023/06/21 09:38:23;;;;;;;9.27;6.40;;;26.80;68.30;;;26.15;54.45;100582.16;4986896;28;20077;-83
2023/06/21 09:40:50;;;;;;;9.82;6.20;;;26.80;65.40;;;26.22;54.52;100585.25;4987093;28;20046;-83
2023/06/21 09:43:20;;;;;;;7.53;5.68;;;26.90;65.40;;;26.29;54.34;100579.34;4988159;28;20050;-83
2023/06/21 09:46:03;;;;;;;8.90;6.00;;;27.00;66.00;;;26.40;55.55;100583.41;4989890;28;20057;-83
2023/06/21 09:48:33;;;;;;;8.88;5.78;;;27.00;68.20;;;26.54;53.82;100577.88;4988123;28;20582;-84
2023/06/21 09:51:03;;;;;;;9.95;6.65;;;27.20;65.20;;;26.48;51.22;100582.69;4987530;28;20046;-84
2023/06/21 09:53:31;;;;;;;10.45;6.70;;;27.20;62.10;;;26.38;52.34;100599.34;4987720;28;20046;-84
2023/06/21 09:55:59;;;;;;;8.88;6.10;;;27.10;63.30;;;26.29;52.36;100591.06;4984152;28;20047;-84
2023/06/21 09:58:28;;;;;;;10.90;6.65;;;27.00;63.40;;;26.24;52.28;100595.88;4985843;28;20061;-83
2023/06/21 10:00:57;;;;;;;9.07;7.05;;;27.00;63.40;;;26.18;52.90;100590.53;4982344;28;20047;-86
2023/06/21 10:03:26;;;;;;;8.40;6.70;;;26.90;63.20;;;26.19;54.45;100591.34;4979626;28;20043;-84
2023/06/21 10:05:55;;;;;;;10.10;6.43;;;26.90;65.40;;;26.16;54.36;100598.25;4988665;28;20533;-84
2023/06/21 10:08:28;;;;;;;9.32;6.38;;;26.90;65.00;;;26.12;54.09;100602.72;4989156;28;20190;-84
2023/06/21 10:10:56;;;;;;;12.50;7.47;;;26.80;65.00;;;26.15;54.14;100606.75;4988101;28;20331;-84
2023/06/21 10:13:30;;;;;;;9.40;6.88;;;26.80;65.00;;;26.23;52.88;100607.94;4989374;28;20055;-84
2023/06/21 10:15:59;;;;;;;9.30;6.88;;;26.80;63.80;;;26.26;52.77;100610.06;4986843;28;20043;-84
2023/06/21 10:18:27;;;;;;;10.27;7.22;;;26.90;63.10;;;26.29;53.47;100607.47;4987719;28;20077;-84